createdAt,value
2022-11-19T00:01:39.047Z,26.03
2022-11-19T00:04:12.888Z,26.03
2022-11-19T00:06:43.699Z,26.02
2022-11-19T00:09:15.367Z,26.02
2022-11-19T00:12:02.247Z,26.03
2022-11-19T00:14:32.779Z,26.01
2022-11-19T00:17:03.987Z,26.01
2022-11-19T00:19:36.292Z,26.01
2022-11-19T00:22:06.459Z,26.01
2022-11-19T00:24:36.907Z,26.00
2022-11-19T00:27:08.057Z,25.99
2022-11-19T00:29:39.099Z,25.98
2022-11-19T00:32:09.809Z,25.97
2022-11-19T00:34:41.848Z,25.98
2022-11-19T00:37:12.519Z,25.95
2022-11-19T00:39:42.584Z,25.95
2022-11-19T00:42:13.526Z,25.94
2022-11-19T00:44:44.073Z,25.93
2022-11-19T00:47:14.705Z,25.91
2022-11-19T00:49:46.361Z,25.89
2022-11-19T00:52:16.660Z,25.86
2022-11-19T00:54:46.818Z,25.83
2022-11-19T00:57:17.575Z,25.83
2022-11-19T00:59:48.458Z,25.81
2022-11-19T01:02:19.031Z,25.80
2022-11-19T01:04:51.360Z,25.79
2022-11-19T01:07:21.923Z,25.78
2022-11-19T01:09:52.373Z,25.77
2022-11-19T01:12:22.871Z,25.76
2022-11-19T01:14:53.502Z,25.74
2022-11-19T01:17:23.434Z,25.73
2022-11-19T01:19:55.945Z,25.73
2022-11-19T01:22:26.137Z,25.71
2022-11-19T01:24:57.167Z,25.70
2022-11-19T01:27:27.624Z,25.69
2022-11-19T01:29:57.992Z,25.69
2022-11-19T01:32:28.311Z,25.66
2022-11-19T01:35:00.747Z,25.64
2022-11-19T01:37:31.383Z,25.60
2022-11-19T01:40:01.606Z,25.58
2022-11-19T01:42:54.959Z,25.58
2022-11-19T01:45:34.431Z,25.56
2022-11-19T01:48:11.354Z,25.56
2022-11-19T01:50:50.013Z,25.56
2022-11-19T01:53:22.777Z,25.57
2022-11-19T01:55:54.221Z,25.57
2022-11-19T01:58:27.034Z,25.59
2022-11-19T02:00:58.041Z,25.59
2022-11-19T02:03:33.037Z,25.59
2022-11-19T02:06:07.127Z,25.60
2022-11-19T02:08:50.441Z,25.60
2022-11-19T02:12:05.718Z,25.55
2022-11-19T02:15:08.497Z,25.53
2022-11-19T02:17:58.738Z,25.49
2022-11-19T02:21:14.941Z,25.46
2022-11-19T02:24:41.139Z,25.43
2022-11-19T02:28:02.408Z,25.40
2022-11-19T02:30:40.399Z,25.40
2022-11-19T02:33:21.161Z,25.43
2022-11-19T02:36:02.024Z,25.43
2022-11-19T02:38:42.918Z,25.44
2022-11-19T02:41:36.707Z,25.45
2022-11-19T02:44:37.149Z,25.44
2022-11-19T02:47:17.496Z,25.43
2022-11-19T02:49:49.224Z,25.42
2022-11-19T02:52:21.392Z,25.40
2022-11-19T02:54:51.353Z,25.38
2022-11-19T02:57:21.917Z,25.37
2022-11-19T03:00:16.463Z,25.37
2022-11-19T03:03:14.076Z,25.35
2022-11-19T03:05:52.476Z,25.32
2022-11-19T03:08:24.369Z,25.31
2022-11-19T03:11:09.991Z,25.32
2022-11-19T03:14:11.881Z,25.30
2022-11-19T03:16:50.884Z,25.28
2022-11-19T03:19:47.080Z,25.25
2022-11-19T03:22:25.544Z,25.24
2022-11-19T03:25:05.960Z,25.21
2022-11-19T03:27:44.025Z,25.16
2022-11-19T03:30:17.517Z,25.12
2022-11-19T03:32:53.475Z,25.07
2022-11-19T03:35:31.811Z,25.03
2022-11-19T03:38:08.679Z,25.01
2022-11-19T03:40:41.587Z,25.01
2022-11-19T03:43:17.307Z,24.99
2022-11-19T03:45:53.302Z,24.99
2022-11-19T03:48:26.483Z,24.99
2022-11-19T03:51:04.042Z,25.00
2022-11-19T03:53:34.703Z,25.01
2022-11-19T03:56:10.045Z,25.03
2022-11-19T03:58:43.669Z,25.03
2022-11-19T04:01:14.845Z,25.04
2022-11-19T04:04:05.996Z,25.04
2022-11-19T04:06:47.208Z,25.05
2022-11-19T04:09:17.849Z,25.04
2022-11-19T04:14:17.209Z,25.05
2022-11-19T04:16:47.890Z,25.06
2022-11-19T04:19:18.852Z,25.06
2022-11-19T04:21:51.256Z,25.06
2022-11-19T04:24:21.418Z,25.06
2022-11-19T04:26:52.058Z,25.04
2022-11-19T04:29:22.819Z,25.04
2022-11-19T04:31:53.032Z,25.03
2022-11-19T04:34:23.567Z,25.03
2022-11-19T04:36:58.258Z,25.04
2022-11-19T04:39:28.294Z,25.02
2022-11-19T04:41:58.328Z,25.02
2022-11-19T04:44:28.136Z,25.01
2022-11-19T04:46:58.745Z,25.02
2022-11-19T04:49:28.877Z,25.03
2022-11-19T04:52:01.450Z,25.06
2022-11-19T04:54:32.105Z,25.13
2022-11-19T04:57:02.178Z,25.24
2022-11-19T04:59:32.390Z,25.33
2022-11-19T05:02:02.680Z,25.45
2022-11-19T05:04:33.347Z,25.58
2022-11-19T05:07:05.803Z,25.72
2022-11-19T05:09:36.373Z,25.87
2022-11-19T05:12:08.084Z,25.98
2022-11-19T05:14:39.456Z,26.09
2022-11-19T05:17:10.183Z,26.16
2022-11-19T05:19:40.448Z,26.20
2022-11-19T05:22:13.520Z,26.22
2022-11-19T05:24:44.117Z,26.23
2022-11-19T05:27:14.881Z,26.25
2022-11-19T05:29:45.368Z,26.25
2022-11-19T05:32:15.488Z,26.27
2022-11-19T05:34:45.652Z,26.32
2022-11-19T05:37:18.155Z,26.38
2022-11-19T05:39:48.812Z,26.44
2022-11-19T05:42:19.518Z,26.58
2022-11-19T05:44:49.609Z,26.73
2022-11-19T05:47:20.109Z,26.90
2022-11-19T05:49:50.669Z,27.12
2022-11-19T05:52:23.270Z,27.34
2022-11-19T05:55:06.287Z,27.60
2022-11-19T05:57:37.507Z,27.82
2022-11-19T06:00:09.429Z,28.04
2022-11-19T06:02:40.167Z,28.27
2022-11-19T06:05:12.154Z,28.49
2022-11-19T06:07:45.101Z,28.71
2022-11-19T06:10:16.590Z,28.92
2022-11-19T06:12:47.472Z,29.14
2022-11-19T06:15:18.717Z,29.34
2022-11-19T06:17:49.005Z,29.50
2022-11-19T06:20:20.344Z,29.69
2022-11-19T06:22:53.287Z,29.89
2022-11-19T06:25:23.729Z,30.06
2022-11-19T06:27:54.197Z,30.23
2022-11-19T06:30:25.016Z,30.40
2022-11-19T06:32:55.566Z,30.56
2022-11-19T06:35:26.518Z,30.72
2022-11-19T06:37:58.330Z,30.86
2022-11-19T06:40:29.051Z,31.00
2022-11-19T06:42:58.619Z,31.13
2022-11-19T06:45:29.329Z,31.26
2022-11-19T06:48:00.001Z,31.39
2022-11-19T06:50:29.771Z,31.53
2022-11-19T06:53:02.366Z,31.68
2022-11-19T06:55:33.025Z,31.81
2022-11-19T06:58:05.722Z,31.93
2022-11-19T07:00:36.807Z,32.05
2022-11-19T07:03:07.894Z,32.10
2022-11-19T07:05:38.797Z,32.16
2022-11-19T07:08:11.400Z,32.24
2022-11-19T07:10:41.934Z,32.35
2022-11-19T07:13:12.542Z,32.49
2022-11-19T07:15:43.485Z,32.64
2022-11-19T07:18:14.518Z,32.78
2022-11-19T07:20:47.504Z,32.91
2022-11-19T07:23:20.725Z,33.04
2022-11-19T07:25:51.470Z,33.15
2022-11-19T07:28:21.465Z,33.27
2022-11-19T07:30:51.482Z,33.39
2022-11-19T07:33:21.959Z,33.51
2022-11-19T07:35:52.255Z,33.63
2022-11-19T07:38:24.386Z,33.76
2022-11-19T07:40:56.635Z,33.89
2022-11-19T07:43:25.716Z,34.01
2022-11-19T07:45:55.661Z,34.12
2022-11-19T07:48:26.240Z,34.23
2022-11-19T07:50:56.723Z,34.36
2022-11-19T07:53:29.464Z,34.48
2022-11-19T07:56:03.467Z,34.62
2022-11-19T07:58:33.932Z,34.76
2022-11-19T08:01:11.896Z,34.93
2022-11-19T08:03:45.792Z,35.07
2022-11-19T08:06:17.175Z,35.23
2022-11-19T08:08:50.637Z,35.38
2022-11-19T08:11:21.093Z,35.49
2022-11-19T08:13:51.816Z,35.61
2022-11-19T08:16:35.742Z,35.71
2022-11-19T08:19:09.033Z,35.79
2022-11-19T08:21:43.375Z,35.84
2022-11-19T08:24:18.225Z,35.87
2022-11-19T08:26:49.505Z,35.87
2022-11-19T08:29:24.156Z,35.89
2022-11-19T08:31:54.644Z,35.86
2022-11-19T08:34:25.485Z,35.82
2022-11-19T08:36:56.575Z,35.76
2022-11-19T08:39:32.369Z,35.68
2022-11-19T08:42:19.531Z,35.59
2022-11-19T08:44:50.474Z,35.46
2022-11-19T08:47:20.678Z,35.38
2022-11-19T08:49:51.339Z,35.29
2022-11-19T08:52:21.841Z,35.21
2022-11-19T08:54:56.054Z,35.12
2022-11-19T08:57:26.479Z,35.02
2022-11-19T08:59:59.130Z,34.95
2022-11-19T09:02:33.731Z,34.87
2022-11-19T09:05:04.649Z,34.80
2022-11-19T09:07:35.504Z,34.72
2022-11-19T09:10:09.175Z,34.67
2022-11-19T09:12:40.021Z,34.59
2022-11-19T09:15:12.331Z,34.51
2022-11-19T09:17:46.747Z,34.43
2022-11-19T09:20:17.969Z,34.34
2022-11-19T09:22:48.857Z,34.26
2022-11-19T09:25:21.670Z,34.20
2022-11-19T09:27:52.548Z,34.11
2022-11-19T09:30:23.417Z,34.04
2022-11-19T09:32:54.308Z,33.97
2022-11-19T09:35:23.963Z,33.90
2022-11-19T09:37:53.691Z,33.82
2022-11-19T09:40:26.547Z,33.74
2022-11-19T09:43:15.257Z,33.67
2022-11-19T09:46:02.185Z,33.58
2022-11-19T09:48:38.261Z,33.46
2022-11-19T09:51:15.383Z,33.35
2022-11-19T09:53:54.012Z,33.26
2022-11-19T09:56:36.180Z,33.17
2022-11-19T09:59:15.609Z,33.07
2022-11-19T10:01:46.353Z,32.99
2022-11-19T10:04:18.547Z,32.94
2022-11-19T10:07:02.790Z,32.86
2022-11-19T10:09:56.419Z,32.77
2022-11-19T10:12:52.902Z,32.69
2022-11-19T10:15:37.579Z,32.63
2022-11-19T10:18:17.516Z,32.55
2022-11-19T10:21:04.667Z,32.50
2022-11-19T10:23:50.959Z,32.44
2022-11-19T10:26:29.941Z,32.34
2022-11-19T10:29:02.762Z,32.28
2022-11-19T10:31:39.607Z,32.22
2022-11-19T10:34:20.841Z,32.16
2022-11-19T10:36:59.718Z,32.08
2022-11-19T10:39:39.174Z,31.97
2022-11-19T10:42:21.878Z,31.89
2022-11-19T10:45:01.934Z,31.82
2022-11-19T10:47:40.690Z,31.74
2022-11-19T10:50:21.387Z,31.69
2022-11-19T10:52:58.191Z,31.64
2022-11-19T10:55:35.056Z,31.58
2022-11-19T10:58:18.692Z,31.51
2022-11-19T11:00:51.590Z,31.42
2022-11-19T11:03:29.421Z,31.34
2022-11-19T11:06:05.799Z,31.25
2022-11-19T11:08:49.299Z,31.20
2022-11-19T11:11:51.442Z,31.16
2022-11-19T11:14:41.859Z,31.14
2022-11-19T11:17:28.933Z,31.10
2022-11-19T11:20:03.539Z,31.07
2022-11-19T11:22:34.409Z,31.04
2022-11-19T11:25:07.607Z,31.00
2022-11-19T11:27:38.694Z,30.95
2022-11-19T11:30:20.366Z,30.89
2022-11-19T11:32:52.025Z,30.86
2022-11-19T11:35:36.970Z,30.80
2022-11-19T11:38:08.371Z,30.76
2022-11-19T11:40:39.887Z,30.74
2022-11-19T11:43:21.158Z,30.73
2022-11-19T11:46:00.580Z,30.72
2022-11-19T11:48:39.878Z,30.67
2022-11-19T11:51:10.441Z,30.62
2022-11-19T11:53:43.304Z,30.59
2022-11-19T11:56:14.076Z,30.58
2022-11-19T11:58:44.479Z,30.57
2022-11-19T12:01:18.782Z,30.57
2022-11-19T12:04:00.302Z,30.53
2022-11-19T12:06:43.289Z,30.50
2022-11-19T12:09:24.829Z,30.49
2022-11-19T12:12:05.400Z,30.48
2022-11-19T12:14:43.778Z,30.45
2022-11-19T12:17:45.580Z,30.42
2022-11-19T12:20:56.166Z,30.33
2022-11-19T12:23:55.628Z,30.29
2022-11-19T12:26:39.071Z,30.23
2022-11-19T12:29:27.004Z,30.19
2022-11-19T12:32:22.984Z,30.13
2022-11-19T12:35:28.918Z,30.12
2022-11-19T12:38:37.632Z,30.11
2022-11-19T12:41:46.492Z,30.11
2022-11-19T12:44:40.036Z,30.13
2022-11-19T12:47:31.369Z,30.12
2022-11-19T12:50:24.100Z,30.12
2022-11-19T12:53:35.325Z,30.11
2022-11-19T12:56:28.557Z,30.09
2022-11-19T12:59:14.821Z,30.08
2022-11-19T13:01:53.223Z,30.04
2022-11-19T13:04:32.614Z,29.99
2022-11-19T13:07:11.098Z,29.96
2022-11-19T13:09:49.950Z,29.97
2022-11-19T13:12:26.507Z,29.95
2022-11-19T13:15:03.604Z,29.94
2022-11-19T13:17:40.888Z,29.94
2022-11-19T13:20:22.277Z,29.93
2022-11-19T13:22:56.484Z,29.92
2022-11-19T13:25:33.590Z,29.91
2022-11-19T13:28:12.895Z,29.91
2022-11-19T13:30:47.915Z,29.90
2022-11-19T13:33:25.844Z,29.89
2022-11-19T13:36:04.093Z,29.87
2022-11-19T13:38:47.184Z,29.85
2022-11-19T13:41:27.075Z,29.79
2022-11-19T13:44:16.099Z,29.75
2022-11-19T13:46:52.573Z,29.71
2022-11-19T13:49:31.890Z,29.67
2022-11-19T13:52:09.659Z,29.64
2022-11-19T13:54:44.014Z,29.64
2022-11-19T13:57:32.009Z,29.64
2022-11-19T14:00:07.645Z,29.66
2022-11-19T14:03:20.403Z,29.64
2022-11-19T14:06:31.436Z,29.57
2022-11-19T14:09:22.488Z,29.53
2022-11-19T14:12:30.469Z,29.53
2022-11-19T14:16:04.668Z,29.50
2022-11-19T14:18:58.662Z,29.49
2022-11-19T14:22:17.846Z,29.47
2022-11-19T14:25:16.101Z,29.46
2022-11-19T14:27:47.827Z,29.44
2022-11-19T14:30:23.740Z,29.45
2022-11-19T14:32:55.563Z,29.45
2022-11-19T14:35:42.037Z,29.45
2022-11-19T14:38:50.583Z,29.43
2022-11-19T14:41:32.302Z,29.41
2022-11-19T14:44:10.324Z,29.39
2022-11-19T14:46:58.018Z,29.40
2022-11-19T14:49:36.429Z,29.40
2022-11-19T14:52:22.821Z,29.39
2022-11-19T14:54:59.689Z,29.36
2022-11-19T14:57:35.401Z,29.31
2022-11-19T15:00:10.225Z,29.26
2022-11-19T15:02:49.593Z,29.22
2022-11-19T15:05:24.230Z,29.19
2022-11-19T15:08:31.283Z,29.17
2022-11-19T15:11:11.891Z,29.13
2022-11-19T15:13:43.336Z,29.12
2022-11-19T15:16:18.763Z,29.12
2022-11-19T15:19:29.507Z,29.11
2022-11-19T15:22:31.146Z,29.10
2022-11-19T15:25:31.087Z,29.09
2022-11-19T15:28:22.504Z,29.09
2022-11-19T15:31:28.567Z,29.06
2022-11-19T15:34:49.242Z,29.01
2022-11-19T15:37:36.861Z,28.96
2022-11-19T15:40:14.514Z,28.91
2022-11-19T15:42:54.453Z,28.89
2022-11-19T15:45:27.609Z,28.84
2022-11-19T15:48:13.576Z,28.81
2022-11-19T15:50:47.738Z,28.78
2022-11-19T15:53:22.020Z,28.74
2022-11-19T15:55:58.232Z,28.73
2022-11-19T15:58:36.632Z,28.72
2022-11-19T16:01:08.024Z,28.69
2022-11-19T16:03:41.623Z,28.67
2022-11-19T16:09:09.097Z,28.67
2022-11-19T16:11:58.280Z,28.67
2022-11-19T16:14:47.858Z,28.67
2022-11-19T16:17:43.094Z,28.66
2022-11-19T16:20:23.239Z,28.67
2022-11-19T16:23:02.096Z,28.66
2022-11-19T16:25:50.613Z,28.67
2022-11-19T16:28:27.225Z,28.69
2022-11-19T16:31:05.211Z,28.67
2022-11-19T16:33:36.799Z,28.68
2022-11-19T16:36:19.217Z,28.67
2022-11-19T16:38:52.910Z,28.66
2022-11-19T16:41:44.722Z,28.66
2022-11-19T16:44:21.817Z,28.65
2022-11-19T16:46:53.708Z,28.65
2022-11-19T16:49:35.373Z,28.64
2022-11-19T16:52:08.107Z,28.63
2022-11-19T16:54:55.382Z,28.62
2022-11-19T16:57:31.606Z,28.62
2022-11-19T17:00:04.988Z,28.61
2022-11-19T17:02:42.464Z,28.60
2022-11-19T17:05:16.562Z,28.59
2022-11-19T17:07:53.018Z,28.57
2022-11-19T17:10:32.959Z,28.56
2022-11-19T17:13:16.892Z,28.53
2022-11-19T17:15:49.358Z,28.53
2022-11-19T17:18:23.873Z,28.51
2022-11-19T17:20:57.905Z,28.50
2022-11-19T17:23:30.417Z,28.49
2022-11-19T17:26:03.563Z,28.47
2022-11-19T17:28:52.642Z,28.45
2022-11-19T17:31:26.745Z,28.44
2022-11-19T17:33:58.938Z,28.42
2022-11-19T17:36:29.988Z,28.42
2022-11-19T17:39:00.798Z,28.40
2022-11-19T17:41:49.115Z,28.38
2022-11-19T17:44:39.562Z,28.35
2022-11-19T17:47:23.213Z,28.33
2022-11-19T17:49:55.277Z,28.32
2022-11-19T17:52:28.307Z,28.31
2022-11-19T17:55:06.328Z,28.29
2022-11-19T17:57:42.187Z,28.27
2022-11-19T18:00:17.924Z,28.25
2022-11-19T18:02:49.708Z,28.23
2022-11-19T18:05:26.658Z,28.21
2022-11-19T18:07:57.505Z,28.20
2022-11-19T18:10:28.984Z,28.18
2022-11-19T18:12:59.379Z,28.16
2022-11-19T18:15:32.765Z,28.14
2022-11-19T18:18:03.018Z,28.12
2022-11-19T18:20:32.943Z,28.10
2022-11-19T18:23:04.156Z,28.09
2022-11-19T18:25:34.998Z,28.07
2022-11-19T18:28:06.332Z,28.05
2022-11-19T18:30:39.480Z,28.04
2022-11-19T18:33:12.113Z,28.02
2022-11-19T18:35:42.529Z,28.01
2022-11-19T18:38:13.330Z,28.01
2022-11-19T18:40:43.903Z,27.99
2022-11-19T18:43:30.569Z,27.97
2022-11-19T18:46:03.219Z,27.95
2022-11-19T18:48:41.300Z,27.94
2022-11-19T18:51:15.086Z,27.92
2022-11-19T18:53:46.989Z,27.91
2022-11-19T18:56:19.880Z,27.90
2022-11-19T18:58:51.712Z,27.89
2022-11-19T19:01:24.568Z,27.88
2022-11-19T19:03:55.360Z,27.86
2022-11-19T19:06:27.471Z,27.84
2022-11-19T19:08:58.549Z,27.83
2022-11-19T19:11:45.177Z,27.82
2022-11-19T19:14:16.723Z,27.78
2022-11-19T19:16:49.005Z,27.78
2022-11-19T19:19:20.910Z,27.76
2022-11-19T19:21:51.545Z,27.75
2022-11-19T19:24:22.442Z,27.72
2022-11-19T19:26:53.126Z,27.71
2022-11-19T19:29:24.037Z,27.68
2022-11-19T19:31:57.658Z,27.66
2022-11-19T19:34:28.521Z,27.65
2022-11-19T19:37:02.800Z,27.64
2022-11-19T19:39:33.716Z,27.61
2022-11-19T19:42:04.482Z,27.59
2022-11-19T19:44:35.219Z,27.57
2022-11-19T19:47:08.386Z,27.55
2022-11-19T19:49:39.879Z,27.53
2022-11-19T19:52:10.831Z,27.51
2022-11-19T19:54:43.337Z,27.50
2022-11-19T19:57:13.518Z,27.48
2022-11-19T19:59:44.492Z,27.47
2022-11-19T20:02:17.701Z,27.45
2022-11-19T20:04:49.878Z,27.45
2022-11-19T20:07:20.722Z,27.45
2022-11-19T20:09:50.492Z,27.44
2022-11-19T20:12:20.522Z,27.43
2022-11-19T20:14:51.146Z,27.41
2022-11-19T20:17:23.830Z,27.41
2022-11-19T20:19:54.586Z,27.39
2022-11-19T20:22:33.644Z,27.39
2022-11-19T20:25:04.244Z,27.36
2022-11-19T20:27:34.986Z,27.35
2022-11-19T20:30:05.913Z,27.35
2022-11-19T20:32:44.682Z,27.33
2022-11-19T20:35:18.490Z,27.32
2022-11-19T20:37:50.078Z,27.30
2022-11-19T20:40:21.034Z,27.29
2022-11-19T20:43:07.992Z,27.29
2022-11-19T20:45:54.181Z,27.27
2022-11-19T20:48:26.844Z,27.25
2022-11-19T20:53:45.649Z,27.24
2022-11-19T20:56:16.483Z,27.24
2022-11-19T20:58:47.362Z,27.23
2022-11-19T21:01:18.021Z,27.22
2022-11-19T21:03:51.005Z,27.21
2022-11-19T21:06:22.350Z,27.19
2022-11-19T21:08:53.295Z,27.17
2022-11-19T21:11:24.597Z,27.16
2022-11-19T21:13:55.411Z,27.15
2022-11-19T21:16:29.103Z,27.15
2022-11-19T21:19:01.339Z,27.13
2022-11-19T21:21:32.691Z,27.09
2022-11-19T21:24:04.149Z,27.10
2022-11-19T21:26:47.474Z,27.08
2022-11-19T21:29:25.502Z,27.07
2022-11-19T21:31:55.976Z,27.05
2022-11-19T21:34:28.790Z,27.04
2022-11-19T21:36:59.513Z,27.04
2022-11-19T21:39:30.177Z,27.03
2022-11-19T21:42:00.310Z,27.03
2022-11-19T21:44:33.154Z,27.01
2022-11-19T21:47:16.405Z,27.01
2022-11-19T21:49:48.522Z,27.00
2022-11-19T21:52:18.959Z,26.99
2022-11-19T21:54:49.643Z,26.98
2022-11-19T21:57:20.247Z,26.97
2022-11-19T21:59:50.234Z,26.95
2022-11-19T22:02:20.886Z,26.94
2022-11-19T22:04:52.985Z,26.94
2022-11-19T22:07:23.106Z,26.92
2022-11-19T22:09:54.119Z,26.91
2022-11-19T22:12:24.854Z,26.89
2022-11-19T22:14:55.617Z,26.86
2022-11-19T22:17:31.505Z,26.83
2022-11-19T22:20:04.948Z,26.80
2022-11-19T22:22:35.615Z,26.74
2022-11-19T22:25:06.176Z,26.70
2022-11-19T22:27:36.672Z,26.66
2022-11-19T22:30:08.815Z,26.63
2022-11-19T22:32:39.775Z,26.61
2022-11-19T22:35:12.456Z,26.60
2022-11-19T22:37:42.678Z,26.59
2022-11-19T22:40:13.905Z,26.59
2022-11-19T22:42:43.763Z,26.59
2022-11-19T22:45:14.110Z,26.60
2022-11-19T22:47:44.243Z,26.58
2022-11-19T22:50:16.949Z,26.58
2022-11-19T22:52:47.243Z,26.57
2022-11-19T22:55:17.461Z,26.57
2022-11-19T22:57:47.627Z,26.57
2022-11-19T23:00:46.790Z,26.55
2022-11-19T23:03:17.588Z,26.53
2022-11-19T23:05:52.193Z,26.53
2022-11-19T23:08:23.188Z,26.50
2022-11-19T23:11:00.872Z,26.49
2022-11-19T23:13:34.943Z,26.45
2022-11-19T23:16:11.217Z,26.44
2022-11-19T23:18:44.578Z,26.41
2022-11-19T23:21:19.207Z,26.38
2022-11-19T23:23:50.309Z,26.36
2022-11-19T23:26:23.834Z,26.35
2022-11-19T23:28:55.286Z,26.34
2022-11-19T23:31:29.618Z,26.34
2022-11-19T23:34:00.275Z,26.33
2022-11-19T23:36:32.862Z,26.33
2022-11-19T23:39:03.314Z,26.34
2022-11-19T23:41:35.163Z,26.34
2022-11-19T23:44:06.009Z,26.34
2022-11-19T23:46:38.603Z,26.35
2022-11-19T23:49:09.297Z,26.36
2022-11-19T23:51:41.184Z,26.35
2022-11-19T23:54:14.757Z,26.34
2022-11-19T23:56:45.463Z,26.34
2022-11-19T23:59:15.645Z,26.34
